Time;durP1;ratioP1;P1;durP2;ratioP2;P2;SDS_P1;SDS_P2;PMS_P1;PMS_P2;Temp;Humidity;BMP_temperature;BMP_pressure;BME280_temperature;BME280_humidity;BME280_pressure;Samples;Min_cycle;Max_cycle;Signal;HPM_P1;HPM_P2
2023/03/19 00:01:41;;;;;;;15.55;7.43;;;1.20;99.90;;;;;;5083035;28;20024;-79
2023/03/19 00:04:07;;;;;;;12.70;6.75;;;1.60;99.90;;;;;;5078117;28;20374;-79
2023/03/19 00:06:32;;;;;;;14.52;7.03;;;1.10;99.90;;;;;;5075001;28;20056;-79
2023/03/19 00:08:58;;;;;;;16.85;6.88;;;1.10;99.90;;;;;;5075228;28;20477;-78
2023/03/19 00:11:24;;;;;;;13.38;7.35;;;1.00;99.90;;;;;;5075388;28;20481;-79
2023/03/19 00:13:50;;;;;;;11.45;6.70;;;1.00;99.90;;;;;;5074764;28;20020;-78
2023/03/19 00:16:16;;;;;;;16.23;7.68;;;1.10;99.90;;;;;;5074876;28;20021;-79
2023/03/19 00:18:41;;;;;;;14.57;7.53;;;0.90;99.90;;;;;;5072521;28;20028;-78
2023/03/19 00:21:08;;;;;;;18.33;7.93;;;1.00;99.90;;;;;;5073549;28;20032;-79
2023/03/19 00:23:35;;;;;;;13.25;7.32;;;1.00;99.90;;;;;;5073554;28;20036;-79
2023/03/19 00:26:01;;;;;;;14.10;8.13;;;1.10;99.90;;;;;;5073079;28;20031;-78
2023/03/19 00:28:27;;;;;;;10.70;6.13;;;0.90;99.90;;;;;;5073378;28;20016;-78
2023/03/19 00:30:52;;;;;;;16.40;7.40;;;0.90;99.90;;;;;;5073622;28;20031;-78
2023/03/19 00:33:19;;;;;;;17.70;7.30;;;0.90;99.90;;;;;;5073714;28;20179;-78
2023/03/19 00:35:45;;;;;;;16.73;6.38;;;0.90;99.90;;;;;;5074392;28;20025;-79
2023/03/19 00:38:10;;;;;;;17.77;7.32;;;0.80;99.90;;;;;;5076964;28;20684;-79
2023/03/19 00:40:36;;;;;;;17.85;8.48;;;0.90;99.90;;;;;;5073402;28;20028;-78
2023/03/19 00:43:02;;;;;;;15.45;7.50;;;1.30;99.90;;;;;;5073718;28;20036;-78
2023/03/19 00:45:29;;;;;;;16.85;6.55;;;0.80;99.90;;;;;;5074287;28;20473;-79
2023/03/19 00:47:56;;;;;;;14.23;7.30;;;0.80;99.90;;;;;;5073189;28;20366;-78
2023/03/19 00:50:23;;;;;;;13.32;5.80;;;0.50;99.90;;;;;;5073304;28;20439;-79
2023/03/19 00:52:50;;;;;;;12.70;6.43;;;0.50;99.90;;;;;;5073181;28;20052;-78
2023/03/19 00:55:15;;;;;;;17.35;8.13;;;0.80;99.90;;;;;;5072761;28;20040;-78
2023/03/19 00:57:41;;;;;;;14.43;7.30;;;0.60;99.90;;;;;;5074209;28;20025;-78
2023/03/19 01:00:07;;;;;;;17.50;7.68;;;0.60;99.90;;;;;;5071790;28;20025;-79
2023/03/19 01:02:33;;;;;;;10.75;5.93;;;0.60;99.90;;;;;;5074300;28;20033;-79
2023/03/19 01:04:59;;;;;;;12.95;6.60;;;0.80;99.90;;;;;;5072272;28;20370;-79
2023/03/19 01:07:25;;;;;;;17.95;7.30;;;1.30;99.90;;;;;;5073445;28;20021;-79
2023/03/19 01:09:50;;;;;;;12.48;6.88;;;0.60;99.90;;;;;;5074366;28;20024;-79
2023/03/19 01:12:18;;;;;;;13.05;6.35;;;1.20;99.90;;;;;;5073061;28;20026;-79
2023/03/19 01:14:44;;;;;;;10.70;6.28;;;1.10;99.90;;;;;;5073927;28;20622;-78
2023/03/19 01:17:09;;;;;;;13.50;6.97;;;0.70;99.90;;;;;;5072527;28;20026;-78
2023/03/19 01:19:35;;;;;;;11.63;6.97;;;0.80;99.90;;;;;;5072469;28;20058;-79
2023/03/19 01:22:03;;;;;;;17.38;7.45;;;1.00;99.90;;;;;;5074006;28;20107;-78
2023/03/19 01:24:32;;;;;;;14.32;6.38;;;0.20;99.90;;;;;;5072658;28;20024;-79
2023/03/19 01:26:58;;;;;;;11.90;5.50;;;0.40;99.90;;;;;;5074169;28;20021;-79
2023/03/19 01:29:23;;;;;;;10.70;5.88;;;0.20;99.90;;;;;;5072442;28;20435;-78
2023/03/19 01:31:50;;;;;;;15.18;7.90;;;0.20;99.90;;;;;;5072914;28;20107;-78
2023/03/19 01:34:15;;;;;;;14.27;6.85;;;0.30;99.90;;;;;;5072589;28;20051;-79
2023/03/19 01:36:41;;;;;;;10.75;6.13;;;0.60;99.90;;;;;;5073580;28;20025;-79
2023/03/19 01:39:08;;;;;;;12.80;6.60;;;0.30;99.90;;;;;;5072360;28;20062;-79
2023/03/19 01:41:33;;;;;;;14.52;5.88;;;0.00;99.90;;;;;;5071252;28;20434;-79
2023/03/19 01:43:59;;;;;;;14.15;6.20;;;0.00;99.90;;;;;;5072329;28;20029;-78
2023/03/19 01:46:27;;;;;;;12.10;5.72;;;0.30;99.90;;;;;;5071981;28;20035;-78
2023/03/19 01:48:58;;;;;;;11.13;6.03;;;0.30;99.90;;;;;;5071842;28;20128;-79
2023/03/19 01:51:28;;;;;;;16.95;7.15;;;0.20;99.90;;;;;;5072293;28;20021;-79
2023/03/19 01:54:01;;;;;;;13.43;6.20;;;0.10;99.90;;;;;;5073587;28;20397;-79
2023/03/19 01:56:32;;;;;;;11.00;6.53;;;0.00;99.90;;;;;;5074529;28;20029;-79
2023/03/19 01:59:13;;;;;;;12.68;6.65;;;0.10;99.90;;;;;;5082870;28;20032;-79
2023/03/19 02:01:48;;;;;;;14.90;7.05;;;0.00;99.90;;;;;;5081330;28;20119;-79
2023/03/19 02:04:14;;;;;;;12.27;6.50;;;-0.10;99.90;;;;;;5080212;28;20025;-79
2023/03/19 02:06:41;;;;;;;17.73;6.95;;;-0.20;99.90;;;;;;5072320;28;20016;-79
2023/03/19 02:09:08;;;;;;;15.60;6.72;;;-0.30;99.90;;;;;;5072591;28;20025;-79
2023/03/19 02:11:35;;;;;;;11.52;6.20;;;0.00;99.90;;;;;;5071691;28;20059;-79
2023/03/19 02:14:00;;;;;;;12.02;6.75;;;-0.30;99.90;;;;;;5071765;28;20055;-78
2023/03/19 02:16:26;;;;;;;10.85;6.38;;;0.00;99.90;;;;;;5072671;28;20060;-79
2023/03/19 02:18:53;;;;;;;16.83;6.40;;;-0.10;99.90;;;;;;5072539;28;20027;-79
2023/03/19 02:21:20;;;;;;;9.70;6.03;;;0.00;99.90;;;;;;5071241;28;20111;-78
2023/03/19 02:24:11;;;;;;;9.48;6.32;;;0.20;99.90;;;;;;5070657;28;20020;-78
2023/03/19 02:26:38;;;;;;;13.75;6.43;;;-0.20;99.90;;;;;;5071661;28;20503;-79
2023/03/19 02:29:04;;;;;;;12.45;7.25;;;-0.20;99.90;;;;;;5071481;28;20024;-78
2023/03/19 02:31:30;;;;;;;17.42;7.53;;;-0.30;99.90;;;;;;5072801;28;20016;-79
2023/03/19 02:34:09;;;;;;;11.85;7.43;;;-0.20;99.90;;;;;;5071637;28;20073;-79
2023/03/19 02:36:41;;;;;;;18.08;7.25;;;-0.20;99.90;;;;;;5072424;28;20055;-79
2023/03/19 02:39:15;;;;;;;16.98;7.15;;;-0.20;99.90;;;;;;5071664;28;20036;-79
2023/03/19 02:41:43;;;;;;;13.85;6.40;;;-0.30;99.90;;;;;;5071357;28;20396;-78
2023/03/19 02:44:11;;;;;;;11.77;6.70;;;-0.30;99.90;;;;;;5071024;28;20535;-79
2023/03/19 02:46:36;;;;;;;16.15;6.82;;;0.10;99.90;;;;;;5040289;22;20129;-78
2023/03/19 02:49:02;;;;;;;16.67;7.28;;;-0.30;99.90;;;;;;5014279;28;20189;-76
2023/03/19 02:51:28;;;;;;;16.80;7.30;;;-0.20;99.90;;;;;;5012597;28;20582;-76
2023/03/19 02:53:54;;;;;;;17.25;6.75;;;-0.20;99.90;;;;;;5012283;28;20049;-77
2023/03/19 02:56:20;;;;;;;14.27;7.15;;;0.00;99.90;;;;;;5012332;28;20053;-76
2023/03/19 02:58:45;;;;;;;16.70;7.80;;;0.10;99.90;;;;;;5013521;28;20153;-76
2023/03/19 03:01:11;;;;;;;13.88;7.10;;;0.00;99.90;;;;;;5012613;28;20080;-75
2023/03/19 03:03:38;;;;;;;15.75;7.35;;;-0.10;99.90;;;;;;5012467;28;20030;-77
2023/03/19 03:06:03;;;;;;;13.20;6.53;;;0.00;99.90;;;;;;5012776;28;20054;-76
2023/03/19 03:08:30;;;;;;;13.82;6.38;;;-0.20;99.90;;;;;;5013728;28;20029;-77
2023/03/19 03:10:55;;;;;;;14.52;7.03;;;-0.20;99.90;;;;;;5018623;28;20050;-77
2023/03/19 03:13:21;;;;;;;12.70;6.70;;;0.10;99.90;;;;;;5013458;28;20677;-76
2023/03/19 03:15:46;;;;;;;13.45;6.93;;;-0.20;99.90;;;;;;5011927;28;20486;-79
2023/03/19 03:18:12;;;;;;;13.45;6.72;;;-0.20;99.90;;;;;;5012498;28;20033;-76
2023/03/19 03:20:38;;;;;;;13.13;6.57;;;-0.30;99.90;;;;;;5013930;28;20022;-75
2023/03/19 03:23:03;;;;;;;15.65;8.98;;;-0.40;99.90;;;;;;5013612;28;20029;-77
2023/03/19 03:25:29;;;;;;;10.00;6.35;;;-0.20;99.90;;;;;;5011885;28;20033;-76
2023/03/19 03:27:55;;;;;;;13.00;6.93;;;-0.20;99.90;;;;;;5011929;28;20479;-76
2023/03/19 03:30:20;;;;;;;16.92;8.02;;;0.00;99.90;;;;;;5012996;28;20087;-76
2023/03/19 03:32:46;;;;;;;17.63;7.25;;;-0.30;99.90;;;;;;5016071;28;20046;-77
2023/03/19 03:35:12;;;;;;;14.13;6.88;;;-0.40;99.90;;;;;;5015824;28;20029;-78
2023/03/19 03:37:38;;;;;;;12.02;6.22;;;-0.40;99.90;;;;;;5017029;28;20097;-76
2023/03/19 03:40:07;;;;;;;15.35;7.40;;;0.10;99.90;;;;;;5016048;28;20025;-77
2023/03/19 03:42:35;;;;;;;22.00;7.30;;;-0.20;99.90;;;;;;5017192;28;20518;-76
2023/03/19 03:45:01;;;;;;;15.48;6.90;;;-0.30;99.90;;;;;;5015328;28;20044;-76
2023/03/19 03:47:26;;;;;;;19.77;7.70;;;-0.40;99.90;;;;;;5017376;28;20129;-78
2023/03/19 03:49:52;;;;;;;15.10;7.40;;;-0.50;99.90;;;;;;5017713;28;20021;-76
2023/03/19 03:52:18;;;;;;;15.93;7.55;;;-0.50;99.90;;;;;;5025488;28;20443;-76
2023/03/19 03:54:43;;;;;;;24.67;7.75;;;-0.50;99.90;;;;;;5033041;28;20029;-74
2023/03/19 03:57:09;;;;;;;11.85;7.00;;;-0.20;99.90;;;;;;5044953;28;20398;-75
2023/03/19 03:59:35;;;;;;;11.02;6.72;;;-0.50;99.90;;;;;;5038540;28;20417;-76
2023/03/19 04:02:00;;;;;;;18.27;8.05;;;-0.40;99.90;;;;;;5038276;28;20033;-77
2023/03/19 04:04:26;;;;;;;12.85;7.35;;;-0.50;99.90;;;;;;5036150;28;20406;-77
2023/03/19 04:06:51;;;;;;;12.80;6.28;;;-0.50;99.90;;;;;;5036493;28;20475;-76
2023/03/19 04:09:18;;;;;;;13.63;6.50;;;0.10;99.90;;;;;;5036668;28;20026;-77
2023/03/19 04:11:44;;;;;;;15.25;6.55;;;-0.20;99.90;;;;;;5037162;28;20021;-76
2023/03/19 04:14:10;;;;;;;14.52;6.13;;;-0.70;99.90;;;;;;5035276;28;20067;-77
2023/03/19 04:16:35;;;;;;;18.10;6.50;;;-0.80;99.90;;;;;;5034870;28;20171;-77
2023/03/19 04:19:01;;;;;;;15.65;6.95;;;-0.80;99.90;;;;;;5036283;28;20096;-78
2023/03/19 04:21:27;;;;;;;14.00;7.18;;;-0.10;99.90;;;;;;5035466;28;20021;-77
2023/03/19 04:23:53;;;;;;;14.85;7.32;;;-0.90;99.90;;;;;;5036677;28;20027;-77
2023/03/19 04:26:18;;;;;;;18.35;8.05;;;-0.90;99.90;;;;;;5035918;28;20025;-77
2023/03/19 04:28:44;;;;;;;16.77;8.25;;;-0.90;99.90;;;;;;5035766;28;20135;-75
2023/03/19 04:31:10;;;;;;;16.13;6.80;;;-0.80;99.90;;;;;;5036281;28;20274;-76
2023/03/19 04:33:35;;;;;;;17.38;7.22;;;-0.90;99.90;;;;;;5034870;28;20021;-77
2023/03/19 04:36:02;;;;;;;16.60;7.43;;;-0.80;99.90;;;;;;5035695;28;20025;-77
2023/03/19 04:38:28;;;;;;;16.20;7.68;;;-0.80;99.90;;;;;;5035626;28;20108;-77
2023/03/19 04:40:55;;;;;;;12.68;7.00;;;-0.90;99.90;;;;;;5036015;28;20516;-77
2023/03/19 04:43:22;;;;;;;17.67;6.68;;;-0.90;99.90;;;;;;5034199;28;20041;-75
2023/03/19 04:45:48;;;;;;;12.20;6.28;;;-1.00;99.90;;;;;;5035150;28;20128;-77
2023/03/19 04:48:14;;;;;;;15.70;6.35;;;-1.00;99.90;;;;;;5035488;28;20025;-77
2023/03/19 04:50:40;;;;;;;22.17;8.25;;;-1.00;99.90;;;;;;5035025;28;20028;-77
2023/03/19 04:53:06;;;;;;;17.75;7.90;;;-1.00;99.90;;;;;;5034551;28;20017;-77
2023/03/19 04:55:32;;;;;;;17.70;6.35;;;-1.00;99.90;;;;;;5034376;28;20055;-77
2023/03/19 04:57:59;;;;;;;12.73;6.88;;;-0.70;99.90;;;;;;5034366;28;20036;-77
2023/03/19 05:00:25;;;;;;;13.25;6.60;;;-1.00;99.90;;;;;;5034438;28;20025;-77
2023/03/19 05:02:50;;;;;;;13.80;6.30;;;-1.00;99.90;;;;;;5034506;28;20120;-77
2023/03/19 05:05:16;;;;;;;13.30;6.65;;;-1.00;99.90;;;;;;5035166;28;20035;-77
2023/03/19 05:07:42;;;;;;;12.25;6.75;;;-1.00;99.90;;;;;;5035148;28;20017;-77
2023/03/19 05:10:08;;;;;;;14.65;7.13;;;-1.00;99.90;;;;;;5034310;28;20470;-76
2023/03/19 05:12:34;;;;;;;16.58;7.57;;;-1.00;99.90;;;;;;5035136;28;20478;-76
2023/03/19 05:15:01;;;;;;;15.40;5.63;;;-0.90;99.90;;;;;;5033658;28;20037;-76
2023/03/19 05:17:27;;;;;;;17.27;7.03;;;-0.80;99.90;;;;;;5035003;28;20026;-77
2023/03/19 05:19:53;;;;;;;15.27;7.63;;;-1.00;99.90;;;;;;5035267;28;20022;-76
2023/03/19 05:22:19;;;;;;;16.60;7.28;;;-0.90;99.90;;;;;;5035233;28;20029;-77
2023/03/19 05:24:45;;;;;;;15.48;7.18;;;-1.00;99.90;;;;;;5033823;28;20026;-76
2023/03/19 05:27:11;;;;;;;11.52;6.90;;;-1.10;99.90;;;;;;5033261;28;20029;-76
2023/03/19 05:29:37;;;;;;;13.18;7.13;;;-1.10;99.90;;;;;;5034339;28;20107;-77
2023/03/19 05:32:03;;;;;;;15.45;8.00;;;-0.70;99.90;;;;;;5034692;28;20115;-76
2023/03/19 05:34:30;;;;;;;15.43;8.35;;;-1.00;99.90;;;;;;5033141;28;20486;-76
2023/03/19 05:36:56;;;;;;;20.48;9.88;;;-1.00;99.90;;;;;;5033110;28;20064;-76
2023/03/19 05:39:22;;;;;;;19.23;9.00;;;-0.90;99.90;;;;;;5033063;28;20379;-77
2023/03/19 05:41:47;;;;;;;19.10;8.35;;;-0.90;99.90;;;;;;5034312;28;20028;-76
2023/03/19 05:44:13;;;;;;;20.35;8.70;;;-0.80;99.90;;;;;;5033408;28;20486;-76
2023/03/19 05:46:39;;;;;;;15.82;7.80;;;-0.70;99.90;;;;;;5033211;28;20037;-76
2023/03/19 05:49:04;;;;;;;14.57;8.32;;;-0.70;99.90;;;;;;5034123;28;20030;-78
2023/03/19 05:51:31;;;;;;;21.23;8.98;;;-0.60;99.90;;;;;;5034482;28;20032;-78
2023/03/19 05:53:56;;;;;;;11.18;5.95;;;-0.30;99.90;;;;;;5033806;28;20571;-76
2023/03/19 05:56:22;;;;;;;18.33;8.63;;;1.60;99.90;;;;;;5032290;28;20034;-76
2023/03/19 05:58:47;;;;;;;18.10;7.97;;;1.30;99.90;;;;;;5015786;28;20030;-76
2023/03/19 06:01:13;;;;;;;15.68;7.85;;;0.80;99.90;;;;;;5019139;28;20118;-77
2023/03/19 06:03:39;;;;;;;18.65;8.13;;;0.50;99.90;;;;;;5015823;28;20030;-77
2023/03/19 06:06:06;;;;;;;13.95;7.22;;;0.30;99.90;;;;;;5014071;28;20513;-77
2023/03/19 06:08:32;;;;;;;17.08;9.07;;;0.10;99.90;;;;;;5015114;28;20026;-77
2023/03/19 06:10:58;;;;;;;15.88;8.30;;;0.10;99.90;;;;;;5015328;28;20057;-77
2023/03/19 06:13:24;;;;;;;17.02;8.07;;;0.00;99.90;;;;;;5015123;28;20029;-77
2023/03/19 06:15:49;;;;;;;14.70;7.43;;;0.00;99.90;;;;;;5013932;28;20041;-76
2023/03/19 06:18:16;;;;;;;16.25;8.82;;;0.10;99.90;;;;;;5013974;28;20025;-77
2023/03/19 06:20:41;;;;;;;19.83;8.68;;;0.20;99.90;;;;;;5014189;28;20033;-75
2023/03/19 06:23:07;;;;;;;19.15;9.00;;;0.50;99.90;;;;;;5015337;28;20079;-78
2023/03/19 06:25:33;;;;;;;21.80;10.52;;;0.60;99.90;;;;;;5015588;28;20045;-77
2023/03/19 06:27:59;;;;;;;17.63;9.15;;;0.60;99.90;;;;;;5014619;28;20565;-77
2023/03/19 06:30:25;;;;;;;19.88;9.98;;;0.60;99.90;;;;;;5016011;28;20498;-77
2023/03/19 06:32:51;;;;;;;23.80;9.68;;;0.70;99.90;;;;;;5015525;28;20103;-77
2023/03/19 06:35:17;;;;;;;16.80;9.98;;;1.00;99.90;;;;;;5013685;28;20025;-76
2023/03/19 06:37:42;;;;;;;17.70;8.95;;;0.90;99.90;;;;;;5014205;28;20121;-77
2023/03/19 06:40:09;;;;;;;18.27;9.35;;;1.10;99.90;;;;;;5017044;28;20041;-77
2023/03/19 06:42:35;;;;;;;20.35;8.25;;;1.20;99.90;;;;;;5013601;28;20052;-76
2023/03/19 06:45:01;;;;;;;21.58;9.10;;;1.40;99.90;;;;;;5011418;28;20534;-77
2023/03/19 06:47:27;;;;;;;14.05;7.97;;;1.60;99.90;;;;;;5011710;28;20026;-77
2023/03/19 06:49:53;;;;;;;14.20;8.50;;;1.60;99.90;;;;;;5013714;28;20029;-76
2023/03/19 06:52:18;;;;;;;18.38;9.40;;;1.80;99.90;;;;;;5013509;28;20525;-77
2023/03/19 06:54:44;;;;;;;14.80;8.43;;;1.90;99.90;;;;;;5013584;28;20026;-75
2023/03/19 06:57:10;;;;;;;15.75;8.80;;;2.10;99.90;;;;;;5014135;28;20022;-77
2023/03/19 06:59:36;;;;;;;17.83;8.82;;;2.10;99.90;;;;;;5012793;28;20075;-77
2023/03/19 07:02:02;;;;;;;21.88;9.27;;;2.30;99.90;;;;;;5014834;28;20148;-77
2023/03/19 07:04:28;;;;;;;17.15;9.43;;;2.30;99.90;;;;;;5015297;28;20430;-77
2023/03/19 07:06:53;;;;;;;13.77;8.75;;;2.40;99.90;;;;;;5015003;28;20028;-78
2023/03/19 07:09:19;;;;;;;14.40;8.48;;;2.50;99.90;;;;;;5012649;28;20108;-77
2023/03/19 07:11:45;;;;;;;15.10;9.43;;;2.70;99.90;;;;;;5013229;28;20026;-78
2023/03/19 07:14:10;;;;;;;16.92;9.15;;;2.80;99.90;;;;;;5014665;28;20026;-78
2023/03/19 07:16:36;;;;;;;19.40;8.02;;;3.00;99.90;;;;;;5014056;28;20022;-76
2023/03/19 07:19:02;;;;;;;16.08;7.70;;;3.00;99.90;;;;;;5012552;28;20113;-76
2023/03/19 07:21:28;;;;;;;14.50;9.00;;;3.10;99.90;;;;;;5012749;28;20026;-75
2023/03/19 07:23:54;;;;;;;15.77;7.60;;;3.20;99.90;;;;;;5012630;28;20022;-77
2023/03/19 07:26:19;;;;;;;15.88;8.55;;;3.30;99.90;;;;;;5013738;28;20025;-77
2023/03/19 07:28:45;;;;;;;15.52;8.75;;;3.40;99.90;;;;;;5013513;28;20069;-76
2023/03/19 07:31:11;;;;;;;19.45;8.52;;;3.50;99.90;;;;;;5023135;28;20022;-75
2023/03/19 07:33:37;;;;;;;17.58;9.07;;;3.60;99.90;;;;;;5023479;28;20025;-76
2023/03/19 07:36:03;;;;;;;16.40;9.60;;;3.60;99.90;;;;;;5023483;28;20030;-76
2023/03/19 07:38:28;;;;;;;14.73;8.07;;;3.80;99.90;;;;;;5022428;28;20120;-76
2023/03/19 07:40:54;;;;;;;14.38;8.23;;;3.90;99.90;;;;;;5021591;28;20030;-76
2023/03/19 07:43:20;;;;;;;13.40;8.23;;;4.10;99.90;;;;;;5024600;28;20048;-75
2023/03/19 07:45:45;;;;;;;14.60;7.63;;;4.20;99.90;;;;;;5019451;28;20433;-77
2023/03/19 07:48:11;;;;;;;17.67;8.52;;;4.30;99.90;;;;;;5017023;28;20032;-76
2023/03/19 07:50:37;;;;;;;19.77;9.75;;;4.40;99.90;;;;;;5016842;28;20028;-76
2023/03/19 07:53:03;;;;;;;15.63;8.77;;;4.50;99.90;;;;;;5017851;28;20097;-76
2023/03/19 07:55:29;;;;;;;19.63;8.43;;;4.70;99.90;;;;;;5020516;28;20101;-77
2023/03/19 07:57:55;;;;;;;17.38;8.10;;;4.90;99.90;;;;;;5021299;28;20028;-77
2023/03/19 08:00:21;;;;;;;16.05;8.38;;;5.10;99.90;;;;;;5021116;28;20057;-76
2023/03/19 08:02:47;;;;;;;17.45;9.68;;;5.30;99.90;;;;;;5022581;28;20051;-74
2023/03/19 08:05:13;;;;;;;18.52;10.15;;;5.50;99.90;;;;;;5023660;28;20017;-76
2023/03/19 08:07:39;;;;;;;18.45;9.43;;;5.60;99.90;;;;;;5021789;28;20049;-77
2023/03/19 08:10:06;;;;;;;16.30;8.38;;;5.80;99.90;;;;;;5011820;28;20025;-77
2023/03/19 08:12:33;;;;;;;15.38;8.90;;;6.00;99.90;;;;;;5013386;28;20030;-72
2023/03/19 08:14:59;;;;;;;14.35;8.00;;;6.20;99.90;;;;;;5010148;28;20030;-77
2023/03/19 08:17:24;;;;;;;16.70;7.90;;;6.30;99.90;;;;;;5010507;28;20146;-77
2023/03/19 08:19:50;;;;;;;18.55;8.48;;;6.50;99.90;;;;;;5014202;28;20229;-74
2023/03/19 08:22:16;;;;;;;17.15;8.27;;;6.50;98.50;;;;;;5015943;28;20549;-77
2023/03/19 08:24:41;;;;;;;18.05;8.38;;;6.60;98.60;;;;;;5015246;28;20128;-77
2023/03/19 08:27:07;;;;;;;20.70;9.18;;;6.80;98.80;;;;;;5016098;28;20026;-77
2023/03/19 08:29:33;;;;;;;18.58;8.00;;;7.10;98.70;;;;;;5013832;28;20025;-76
2023/03/19 08:32:00;;;;;;;14.02;8.10;;;7.30;97.10;;;;;;5017018;28;20501;-76
2023/03/19 08:34:26;;;;;;;15.88;9.13;;;7.40;96.80;;;;;;5014751;28;20029;-74
2023/03/19 08:36:51;;;;;;;13.70;7.55;;;7.50;96.20;;;;;;5016896;28;20022;-78
2023/03/19 08:39:17;;;;;;;14.95;8.38;;;7.70;95.30;;;;;;5015583;28;20471;-78
2023/03/19 08:41:43;;;;;;;16.25;7.70;;;7.80;94.70;;;;;;5016996;28;20471;-79
2023/03/19 08:44:09;;;;;;;11.85;7.82;;;8.00;95.00;;;;;;5017075;28;20030;-77
2023/03/19 08:46:35;;;;;;;17.35;8.13;;;8.10;94.20;;;;;;5017170;28;20037;-77
2023/03/19 08:49:00;;;;;;;13.75;8.02;;;8.20;93.80;;;;;;5366916;22;20044;-78
2023/03/19 08:51:28;;;;;;;17.23;9.20;;;8.30;94.30;;;;;;5077347;28;20477;-80
2023/03/19 08:53:55;;;;;;;13.00;7.82;;;9.20;94.40;;;;;;5074788;28;20036;-78
2023/03/19 08:56:21;;;;;;;13.65;8.52;;;8.80;94.00;;;;;;5073895;28;20047;-76
2023/03/19 08:58:46;;;;;;;11.15;8.43;;;8.80;93.60;;;;;;5072614;28;20036;-78
2023/03/19 09:01:13;;;;;;;14.82;8.05;;;8.90;93.00;;;;;;5072750;28;20073;-79
2023/03/19 09:03:40;;;;;;;13.65;8.45;;;8.90;92.20;;;;;;5073032;28;20031;-78
2023/03/19 09:06:08;;;;;;;14.90;8.27;;;9.00;91.90;;;;;;5072802;28;20505;-79
2023/03/19 09:08:35;;;;;;;15.73;9.00;;;9.10;91.70;;;;;;5073097;28;20434;-79
2023/03/19 09:11:01;;;;;;;12.98;8.60;;;9.30;92.30;;;;;;5073774;28;20017;-79
2023/03/19 09:13:26;;;;;;;21.67;8.35;;;9.40;91.50;;;;;;5072848;28;20385;-79
2023/03/19 09:15:52;;;;;;;16.02;8.27;;;9.50;91.40;;;;;;5073948;28;20040;-78
2023/03/19 09:18:23;;;;;;;16.35;8.63;;;9.60;90.90;;;;;;5072522;28;20481;-78
2023/03/19 09:20:49;;;;;;;18.65;8.45;;;9.70;90.30;;;;;;5072710;28;20044;-79
2023/03/19 09:23:15;;;;;;;14.25;7.80;;;9.80;90.20;;;;;;5073726;28;20025;-78
2023/03/19 09:25:40;;;;;;;11.93;6.97;;;9.80;89.00;;;;;;5073295;28;20489;-77
2023/03/19 09:28:06;;;;;;;15.27;8.65;;;10.40;92.80;;;;;;5072357;28;20396;-78
2023/03/19 09:30:32;;;;;;;15.68;9.23;;;10.50;90.10;;;;;;5071069;28;20025;-78
2023/03/19 09:32:58;;;;;;;16.10;9.20;;;10.30;87.20;;;;;;5071851;28;20028;-78
2023/03/19 09:35:25;;;;;;;13.02;8.63;;;10.40;88.80;;;;;;5072546;28;20031;-77
2023/03/19 09:37:51;;;;;;;16.02;8.05;;;10.40;87.20;;;;;;5073887;28;20028;-78
2023/03/19 09:40:29;;;;;;;23.08;8.57;;;10.50;86.20;;;;;;5071989;28;20396;-77
2023/03/19 09:43:16;;;;;;;12.77;7.70;;;10.70;85.90;;;;;;5073291;28;20377;-77
2023/03/19 09:45:45;;;;;;;12.55;8.18;;;10.70;84.60;;;;;;5071786;28;20444;-77
2023/03/19 09:48:18;;;;;;;12.75;7.65;;;10.70;85.60;;;;;;5071318;28;20027;-77
2023/03/19 09:50:47;;;;;;;15.77;9.38;;;10.80;84.20;;;;;;5071940;28;20040;-78
2023/03/19 09:53:29;;;;;;;15.80;8.07;;;11.00;84.10;;;;;;5073068;28;20074;-77
2023/03/19 09:55:57;;;;;;;12.55;7.70;;;11.00;82.70;;;;;;5070986;28;20028;-77
2023/03/19 09:58:35;;;;;;;12.30;7.60;;;11.10;84.40;;;;;;5070931;28;20082;-76
2023/03/19 10:01:02;;;;;;;14.23;7.93;;;11.20;82.50;;;;;;5072807;28;20056;-78
2023/03/19 10:03:46;;;;;;;15.88;7.60;;;11.30;83.30;;;;;;5071750;28;20044;-77
2023/03/19 10:06:28;;;;;;;13.85;8.10;;;11.40;82.20;;;;;;5071207;28;20032;-78
2023/03/19 10:09:25;;;;;;;14.10;7.97;;;11.50;81.70;;;;;;5072367;28;20013;-78
2023/03/19 10:12:04;;;;;;;12.55;7.70;;;11.70;82.00;;;;;;5058977;28;20064;-77
2023/03/19 10:14:33;;;;;;;16.02;7.43;;;11.70;81.10;;;;;;5051514;28;20486;-82
2023/03/19 10:17:01;;;;;;;14.35;8.60;;;11.90;80.20;;;;;;5055609;28;20029;-76
2023/03/19 10:19:56;;;;;;;13.75;7.10;;;12.00;79.70;;;;;;5053138;28;20036;-80
2023/03/19 10:22:29;;;;;;;13.60;7.25;;;12.00;79.10;;;;;;5053047;28;20053;-83
2023/03/19 10:24:56;;;;;;;13.18;8.02;;;12.10;79.50;;;;;;5053827;28;20025;-84
2023/03/19 10:27:27;;;;;;;16.65;7.35;;;12.30;78.10;;;;;;5053999;28;20029;-83
2023/03/19 10:29:53;;;;;;;12.73;6.75;;;12.40;77.00;;;;;;5055841;28;20489;-81
2023/03/19 10:32:27;;;;;;;11.52;7.65;;;12.60;76.30;;;;;;5056043;28;20066;-81
2023/03/19 10:34:53;;;;;;;16.75;8.63;;;12.60;75.80;;;;;;5057402;28;20388;-81
2023/03/19 10:37:19;;;;;;;11.07;6.78;;;12.80;77.10;;;;;;5056041;28;20053;-78
2023/03/19 10:39:50;;;;;;;15.82;9.35;;;12.70;75.00;;;;;;5059010;28;20051;-83
2023/03/19 10:42:59;;;;;;;14.85;7.63;;;12.80;75.60;;;;;;5056801;28;20616;-82
2023/03/19 10:45:35;;;;;;;12.48;7.93;;;12.90;73.90;;;;;;5054798;28;20020;-81
2023/03/19 10:48:03;;;;;;;19.27;9.40;;;12.90;73.00;;;;;;5055865;28;20024;-84
2023/03/19 10:50:33;;;;;;;15.20;8.95;;;13.00;73.40;;;;;;5053615;28;20021;-83
2023/03/19 10:53:02;;;;;;;16.25;6.88;;;13.10;71.70;;;;;;5067330;28;20028;-83
2023/03/19 10:55:32;;;;;;;15.73;8.13;;;13.00;69.90;;;;;;5069987;28;20119;-79
2023/03/19 10:58:15;;;;;;;14.07;7.30;;;13.10;68.60;;;;;;5061854;28;20021;-76
2023/03/19 11:00:45;;;;;;;14.68;7.63;;;13.20;68.90;;;;;;5064361;28;20563;-80
2023/03/19 11:03:31;;;;;;;11.93;6.45;;;13.30;69.30;;;;;;5066425;28;20073;-79
2023/03/19 11:06:04;;;;;;;12.73;7.28;;;13.40;69.10;;;;;;5053743;28;20044;-75
2023/03/19 11:08:35;;;;;;;11.07;6.95;;;13.60;69.60;;;;;;5053025;28;20029;-75
2023/03/19 11:11:01;;;;;;;12.65;7.30;;;13.70;68.30;;;;;;5054064;28;20071;-75
2023/03/19 11:13:27;;;;;;;11.77;7.70;;;13.80;68.20;;;;;;5058878;28;20032;-75
2023/03/19 11:15:56;;;;;;;14.80;8.00;;;13.70;68.40;;;;;;5052733;28;20124;-75
2023/03/19 11:18:26;;;;;;;12.52;6.82;;;13.70;68.80;;;;;;5050918;28;20041;-75
2023/03/19 11:20:58;;;;;;;12.98;7.50;;;13.60;68.20;;;;;;5056980;28;20112;-73
2023/03/19 11:23:30;;;;;;;13.07;7.18;;;13.80;69.40;;;;;;5059600;28;20028;-75
2023/03/19 11:26:00;;;;;;;14.02;9.20;;;13.90;68.00;;;;;;5062203;28;20025;-75
2023/03/19 11:28:31;;;;;;;10.82;6.90;;;14.00;68.60;;;;;;5061109;28;20024;-75
2023/03/19 11:31:22;;;;;;;11.27;7.15;;;14.00;67.60;;;;;;5065756;28;20024;-75
2023/03/19 11:34:19;;;;;;;17.15;7.55;;;13.80;66.40;;;;;;5070020;28;20017;-75
2023/03/19 11:37:04;;;;;;;14.85;8.25;;;13.80;67.20;;;;;;5070976;28;20096;-75
2023/03/19 11:39:50;;;;;;;31.15;14.60;;;13.80;66.90;;;;;;5070787;28;20044;-75
2023/03/19 11:42:45;;;;;;;15.43;7.53;;;13.90;66.90;;;;;;5071223;28;20385;-75
2023/03/19 11:45:38;;;;;;;21.45;10.20;;;14.00;65.90;;;;;;5052153;28;20041;-75
2023/03/19 11:48:22;;;;;;;14.02;7.53;;;14.00;66.40;;;;;;5056779;28;20047;-74
2023/03/19 11:50:48;;;;;;;12.50;7.60;;;14.00;66.70;;;;;;5057412;28;20018;-74
2023/03/19 11:53:29;;;;;;;13.18;7.18;;;14.00;67.20;;;;;;5051509;28;20028;-74
2023/03/19 11:56:32;;;;;;;9.88;6.78;;;14.20;68.20;;;;;;5051614;28;20060;-74
2023/03/19 11:59:25;;;;;;;12.68;7.43;;;14.30;66.50;;;;;;5052007;28;20036;-75
2023/03/19 12:02:06;;;;;;;11.82;6.88;;;14.40;67.00;;;;;;5053764;28;20044;-75
2023/03/19 12:05:23;;;;;;;12.45;6.93;;;14.60;66.50;;;;;;5065171;28;20253;-74
2023/03/19 12:08:00;;;;;;;15.05;8.10;;;14.90;66.70;;;;;;5023618;28;20033;-75
2023/03/19 12:10:35;;;;;;;13.10;7.72;;;15.10;66.50;;;;;;5062648;28;20016;-75
2023/03/19 12:13:12;;;;;;;11.75;6.97;;;15.00;64.90;;;;;;5061715;28;20021;-75
2023/03/19 12:16:00;;;;;;;11.88;6.53;;;15.00;65.10;;;;;;5054387;28;20033;-75
2023/03/19 12:18:25;;;;;;;11.80;7.28;;;15.10;64.30;;;;;;5052878;28;20055;-74
2023/03/19 12:21:28;;;;;;;16.88;8.10;;;15.30;65.80;;;;;;5054729;28;20025;-77
2023/03/19 12:24:27;;;;;;;10.98;5.93;;;15.50;64.20;;;;;;4976344;28;20498;-77
2023/03/19 12:27:05;;;;;;;10.48;7.13;;;15.40;64.20;;;;;;5047270;28;20128;-80
2023/03/19 12:30:05;;;;;;;14.93;6.95;;;15.40;65.10;;;;;;5075900;28;20128;-80
2023/03/19 12:32:40;;;;;;;12.00;6.30;;;15.60;63.90;;;;;;5074492;28;20111;-81
2023/03/19 12:35:34;;;;;;;10.73;6.55;;;15.70;64.00;;;;;;5072720;28;20135;-76
2023/03/19 12:38:08;;;;;;;9.85;7.07;;;15.80;62.80;;;;;;5058656;28;20268;-76
2023/03/19 12:40:42;;;;;;;10.95;6.65;;;15.70;63.90;;;;;;5064794;28;20029;-78
2023/03/19 12:43:41;;;;;;;10.85;6.35;;;15.90;63.80;;;;;;5072038;28;20051;-75
2023/03/19 12:46:17;;;;;;;15.07;6.72;;;15.80;61.60;;;;;;5040693;28;20044;-75
2023/03/19 12:48:50;;;;;;;11.27;6.50;;;15.80;61.20;;;;;;5073971;28;20097;-75
2023/03/19 12:51:21;;;;;;;10.50;5.55;;;15.70;61.30;;;;;;5072430;28;20028;-75